createdAt,value
2023-05-16T00:02:49.090Z,12.90
2023-05-16T00:06:37.007Z,13.80
2023-05-16T00:10:40.467Z,16.20
2023-05-16T00:14:28.549Z,14.40
2023-05-16T00:18:28.124Z,12.80
2023-05-16T00:22:18.266Z,15.30
2023-05-16T00:25:50.198Z,18.60
2023-05-16T00:29:37.648Z,15.10
2023-05-16T00:37:48.166Z,12.20
2023-05-16T00:53:43.050Z,12.60
2023-05-16T01:06:17.026Z,12.10
2023-05-16T01:10:45.743Z,13.90
2023-05-16T01:15:36.616Z,15.00
2023-05-16T01:19:18.445Z,12.50
2023-05-16T01:23:21.107Z,14.90
2023-05-16T01:27:27.682Z,11.70
2023-05-16T01:31:13.359Z,12.90
2023-05-16T01:35:20.814Z,13.30
2023-05-16T01:38:42.579Z,14.10
2023-05-16T01:42:39.524Z,13.40
2023-05-16T01:46:30.116Z,13.80
2023-05-16T01:49:53.470Z,12.00
2023-05-16T01:53:45.300Z,15.60
2023-05-16T01:57:51.496Z,15.20
2023-05-16T02:01:38.647Z,12.90
2023-05-16T02:05:39.159Z,12.90
2023-05-16T02:10:08.859Z,12.70
2023-05-16T02:14:12.447Z,13.60
2023-05-16T02:17:48.906Z,16.70
2023-05-16T02:21:29.623Z,11.10
2023-05-16T02:24:54.372Z,11.60
2023-05-16T02:28:20.229Z,13.70
2023-05-16T02:31:40.839Z,11.40
2023-05-16T02:35:52.777Z,10.80
2023-05-16T02:39:42.028Z,10.80
2023-05-16T02:43:05.734Z,10.80
2023-05-16T02:46:45.840Z,12.80
2023-05-16T02:50:33.265Z,10.40
2023-05-16T02:54:22.956Z,12.40
2023-05-16T02:58:10.819Z,13.40
2023-05-16T03:01:54.411Z,12.00
2023-05-16T03:06:10.975Z,11.00
2023-05-16T03:10:16.712Z,79.50
2023-05-16T03:14:21.409Z,11.20
2023-05-16T03:18:07.503Z,11.60
2023-05-16T03:22:06.389Z,12.00
2023-05-16T03:26:14.336Z,14.00
2023-05-16T03:30:22.937Z,11.00
2023-05-16T03:33:53.384Z,12.30
2023-05-16T03:38:13.495Z,12.70
2023-05-16T03:42:01.054Z,12.90
2023-05-16T03:45:48.675Z,12.70
2023-05-16T03:49:17.496Z,14.50
2023-05-16T03:53:07.779Z,14.70
2023-05-16T03:57:21.068Z,14.10
2023-05-16T04:01:05.569Z,12.80
2023-05-16T04:05:14.844Z,13.10
2023-05-16T04:08:46.462Z,12.50
2023-05-16T04:12:50.505Z,11.90
2023-05-16T04:20:56.834Z,13.00
2023-05-16T04:24:44.855Z,12.30
2023-05-16T04:28:15.848Z,14.20
2023-05-16T04:32:41.724Z,12.50
2023-05-16T04:36:31.908Z,11.30
2023-05-16T04:40:18.687Z,12.00
2023-05-16T04:44:28.502Z,11.60
2023-05-16T04:48:55.934Z,13.50
2023-05-16T04:53:24.076Z,11.60
2023-05-16T05:01:55.564Z,12.80
2023-05-16T05:05:43.808Z,13.60
2023-05-16T05:09:31.557Z,12.40
2023-05-16T05:13:17.830Z,12.20
2023-05-16T05:17:01.334Z,11.50
2023-05-16T05:20:49.603Z,10.90
2023-05-16T05:24:37.133Z,11.20
2023-05-16T05:28:24.645Z,10.60
2023-05-16T05:36:19.290Z,12.00
2023-05-16T05:40:15.773Z,14.00
2023-05-16T05:44:23.845Z,12.10
2023-05-16T05:48:20.061Z,12.70
2023-05-16T05:52:48.514Z,11.70
2023-05-16T05:57:00.743Z,12.50
2023-05-16T06:01:28.858Z,12.30
2023-05-16T06:05:32.828Z,12.70
2023-05-16T06:09:43.197Z,13.90
2023-05-16T06:14:11.035Z,12.80
2023-05-16T06:18:39.943Z,13.00
2023-05-16T06:22:48.016Z,11.70
2023-05-16T06:26:52.112Z,11.10
2023-05-16T06:31:20.054Z,12.70
2023-05-16T06:35:35.410Z,10.90
2023-05-16T06:39:59.997Z,10.80
2023-05-16T06:44:27.628Z,11.30
2023-05-16T06:48:35.575Z,13.10
2023-05-16T06:52:41.266Z,11.50
2023-05-16T06:56:33.198Z,11.10
2023-05-16T07:00:37.458Z,10.70
2023-05-16T07:04:28.137Z,9.60
2023-05-16T07:08:36.115Z,9.10
2023-05-16T07:12:44.327Z,11.30
2023-05-16T07:16:52.249Z,9.00
2023-05-16T07:21:00.629Z,12.80
2023-05-16T07:24:50.905Z,10.70
2023-05-16T07:28:57.009Z,11.70
2023-05-16T07:32:46.120Z,11.70
2023-05-16T07:36:54.219Z,11.00
2023-05-16T07:40:44.387Z,10.90
2023-05-16T07:44:40.937Z,10.40
2023-05-16T07:49:08.500Z,9.80
2023-05-16T07:52:57.380Z,9.70
2023-05-16T07:57:08.967Z,9.20
2023-05-16T08:00:57.468Z,8.90
2023-05-16T08:04:46.742Z,11.10
2023-05-16T08:08:53.975Z,7.90
2023-05-16T08:12:43.687Z,9.30
2023-05-16T08:16:35.363Z,8.50
2023-05-16T08:21:01.227Z,7.00
2023-05-16T08:25:10.415Z,6.80
2023-05-16T08:29:18.896Z,6.50
2023-05-16T08:33:11.343Z,6.30
2023-05-16T08:37:44.554Z,6.40
2023-05-16T08:41:57.229Z,9.20
2023-05-16T08:46:09.959Z,8.20
2023-05-16T08:49:59.969Z,12.10
2023-05-16T08:54:36.297Z,6.90
2023-05-16T08:58:34.908Z,6.80
2023-05-16T09:02:54.233Z,7.40
2023-05-16T09:06:50.058Z,7.50
2023-05-16T09:10:58.565Z,7.60
2023-05-16T09:14:48.284Z,7.10
2023-05-16T09:18:54.376Z,7.30
2023-05-16T09:23:13.339Z,7.50
2023-05-16T09:27:25.069Z,7.60
2023-05-16T09:31:34.639Z,8.00
2023-05-16T09:35:45.546Z,8.30
2023-05-16T09:39:55.807Z,7.10
2023-05-16T09:44:23.827Z,7.30
2023-05-16T09:48:13.861Z,7.10
2023-05-16T09:52:06.800Z,7.00
2023-05-16T09:56:16.610Z,7.80
2023-05-16T10:00:25.724Z,7.70
2023-05-16T10:04:41.427Z,10.30
2023-05-16T10:09:04.696Z,12.20
2023-05-16T10:13:14.877Z,10.80
2023-05-16T10:17:22.922Z,11.60
2023-05-16T10:21:31.257Z,14.70
2023-05-16T10:26:14.050Z,16.30
2023-05-16T10:30:03.754Z,16.20
2023-05-16T10:33:52.450Z,16.10
2023-05-16T10:37:40.208Z,16.50
2023-05-16T10:41:36.995Z,17.70
2023-05-16T10:46:19.579Z,16.70
2023-05-16T10:50:20.468Z,16.80
2023-05-16T10:54:19.407Z,15.00
2023-05-16T10:58:31.247Z,16.00
2023-05-16T11:02:43.152Z,14.90
2023-05-16T11:06:54.175Z,13.50
2023-05-16T11:11:04.295Z,15.80
2023-05-16T11:15:32.721Z,14.10
2023-05-16T11:20:12.903Z,16.00
2023-05-16T11:24:39.718Z,14.30
2023-05-16T11:29:07.962Z,13.90
2023-05-16T11:33:36.956Z,14.30
2023-05-16T11:37:45.684Z,15.20
2023-05-16T11:42:14.575Z,13.10
2023-05-16T11:46:57.896Z,13.10
2023-05-16T11:51:25.557Z,14.60
2023-05-16T11:55:55.739Z,17.30
2023-05-16T12:00:05.172Z,17.10
2023-05-16T12:04:36.248Z,16.20
2023-05-16T12:08:30.177Z,16.50
2023-05-16T12:12:19.050Z,17.00
2023-05-16T12:16:27.920Z,18.40
2023-05-16T12:20:18.376Z,17.60
2023-05-16T12:28:41.565Z,19.40
2023-05-16T12:32:32.968Z,17.90
2023-05-16T12:36:21.230Z,22.00
2023-05-16T12:40:29.833Z,20.80
2023-05-16T12:45:06.550Z,20.00
2023-05-16T12:49:15.521Z,21.10
2023-05-16T12:53:03.659Z,20.10
2023-05-16T12:57:20.535Z,20.20
2023-05-16T13:01:16.879Z,19.30
2023-05-16T13:05:25.349Z,20.70
2023-05-16T13:09:34.962Z,17.40
2023-05-16T13:13:42.729Z,16.90
2023-05-16T13:17:50.664Z,19.50
2023-05-16T13:22:12.042Z,19.00
2023-05-16T13:26:01.902Z,20.00
2023-05-16T13:30:10.172Z,19.60
2023-05-16T13:34:06.372Z,20.00
2023-05-16T13:38:14.483Z,21.20
2023-05-16T13:42:03.110Z,19.70
2023-05-16T13:45:52.479Z,22.80
2023-05-16T13:49:45.369Z,20.60
2023-05-16T13:54:15.723Z,22.10
2023-05-16T13:58:23.649Z,22.60
2023-05-16T14:02:13.401Z,20.40
2023-05-16T14:06:01.874Z,21.80
2023-05-16T14:10:09.847Z,18.70
2023-05-16T14:14:06.442Z,18.50
2023-05-16T14:18:15.513Z,17.50
2023-05-16T14:22:12.495Z,20.70
2023-05-16T14:26:28.301Z,21.60
2023-05-16T14:30:15.669Z,24.70
2023-05-16T14:34:05.681Z,20.20
2023-05-16T14:38:02.523Z,20.30
2023-05-16T14:41:54.011Z,21.00
2023-05-16T14:46:02.023Z,19.40
2023-05-16T14:49:58.626Z,20.20
2023-05-16T14:53:49.768Z,19.70
2023-05-16T14:57:59.982Z,21.40
2023-05-16T15:01:57.158Z,19.90
2023-05-16T15:05:46.639Z,18.90
2023-05-16T15:10:03.365Z,23.20
2023-05-16T15:13:55.279Z,20.80
2023-05-16T15:18:02.404Z,21.10
2023-05-16T15:21:50.312Z,20.90
2023-05-16T15:25:59.938Z,22.10
2023-05-16T15:30:08.100Z,22.50
2023-05-16T15:34:00.221Z,22.30
2023-05-16T15:37:49.257Z,22.50
2023-05-16T15:42:10.263Z,21.70
2023-05-16T15:46:07.289Z,25.50
2023-05-16T15:49:56.149Z,24.50
2023-05-16T15:54:19.313Z,24.80
2023-05-16T15:58:27.420Z,22.60
2023-05-16T16:02:17.202Z,23.50
2023-05-16T16:06:26.777Z,18.90
2023-05-16T16:10:35.170Z,22.00
2023-05-16T16:14:30.396Z,21.90
2023-05-16T16:18:18.040Z,24.60
2023-05-16T16:22:07.190Z,21.80
2023-05-16T16:26:15.681Z,22.10
2023-05-16T16:30:02.862Z,26.20
2023-05-16T16:33:50.877Z,24.70
2023-05-16T16:38:07.179Z,25.60
2023-05-16T16:42:11.755Z,24.60
2023-05-16T16:46:00.222Z,25.20
2023-05-16T16:50:29.222Z,25.30
2023-05-16T16:54:37.259Z,25.00
2023-05-16T16:58:58.009Z,26.30
2023-05-16T17:03:06.888Z,24.90
2023-05-16T17:07:12.860Z,32.50
2023-05-16T17:11:07.192Z,33.90
2023-05-16T17:15:11.947Z,33.00
2023-05-16T17:19:01.195Z,27.90
2023-05-16T17:22:55.198Z,32.50
2023-05-16T17:26:43.717Z,31.10
2023-05-16T17:30:32.420Z,31.30
2023-05-16T17:34:17.733Z,30.00
2023-05-16T17:38:09.872Z,34.70
2023-05-16T17:42:19.424Z,26.40
2023-05-16T17:46:29.854Z,28.30
2023-05-16T17:50:19.159Z,26.00
2023-05-16T17:54:11.422Z,24.30
2023-05-16T17:58:01.717Z,20.30
2023-05-16T18:01:49.896Z,21.60
2023-05-16T18:06:01.835Z,17.20
2023-05-16T18:09:51.837Z,17.10
2023-05-16T18:13:41.134Z,19.00
2023-05-16T18:17:49.073Z,21.30
2023-05-16T18:22:15.070Z,17.70
2023-05-16T18:26:05.866Z,15.00
2023-05-16T18:29:55.020Z,18.50
2023-05-16T18:33:44.153Z,17.40
2023-05-16T18:37:33.028Z,15.40
2023-05-16T18:41:20.758Z,17.00
2023-05-16T18:45:11.246Z,15.90
2023-05-16T18:49:02.610Z,16.30
2023-05-16T18:53:12.038Z,18.60
2023-05-16T18:57:22.230Z,15.80
2023-05-16T19:01:10.060Z,15.30
2023-05-16T19:05:00.524Z,17.00
2023-05-16T19:08:50.057Z,18.20
2023-05-16T19:12:39.263Z,21.60
2023-05-16T19:16:30.342Z,18.60
2023-05-16T19:20:24.291Z,17.50
2023-05-16T19:23:53.781Z,19.50
2023-05-16T19:27:42.727Z,19.90
2023-05-16T19:31:31.060Z,18.20
2023-05-16T19:35:20.219Z,16.50
2023-05-16T19:39:16.774Z,18.60
2023-05-16T19:43:05.958Z,18.60
2023-05-16T19:47:19.708Z,16.00
2023-05-16T19:51:08.538Z,18.30
2023-05-16T19:55:05.085Z,16.80
2023-05-16T19:58:54.432Z,18.50
2023-05-16T20:02:44.764Z,18.40
2023-05-16T20:06:33.900Z,22.40
2023-05-16T20:10:22.301Z,19.80
2023-05-16T20:14:30.502Z,18.00
2023-05-16T20:18:35.225Z,20.40
2023-05-16T20:22:40.914Z,19.90
2023-05-16T20:26:30.096Z,19.40
2023-05-16T20:30:18.694Z,19.60
2023-05-16T20:34:30.257Z,17.60
2023-05-16T20:38:38.579Z,17.20
2023-05-16T20:42:31.713Z,21.00
2023-05-16T20:46:39.643Z,21.40
2023-05-16T20:50:44.876Z,20.20
2023-05-16T20:54:56.361Z,21.00
2023-05-16T20:58:51.730Z,19.20
2023-05-16T21:02:44.788Z,19.10
2023-05-16T21:06:33.326Z,24.10
2023-05-16T21:10:22.518Z,21.40
2023-05-16T21:14:30.697Z,24.20
2023-05-16T21:18:42.368Z,23.50
2023-05-16T21:22:32.426Z,20.90
2023-05-16T21:26:20.326Z,21.90
2023-05-16T21:30:08.926Z,23.60
2023-05-16T21:34:17.476Z,21.80
2023-05-16T21:38:13.440Z,22.00
2023-05-16T21:42:02.541Z,22.20
2023-05-16T21:45:55.599Z,21.20
2023-05-16T21:49:43.592Z,24.60
2023-05-16T21:53:39.281Z,21.60
2023-05-16T21:57:27.952Z,23.50
2023-05-16T22:01:36.538Z,23.40
2023-05-16T22:05:45.512Z,26.50
2023-05-16T22:09:53.379Z,25.20
2023-05-16T22:13:42.709Z,22.60
2023-05-16T22:17:31.364Z,22.40
2023-05-16T22:21:21.517Z,25.70
2023-05-16T22:25:29.404Z,24.60
2023-05-16T22:29:40.417Z,22.90
2023-05-16T22:33:29.111Z,24.50
2023-05-16T22:37:37.476Z,26.00
2023-05-16T22:41:35.892Z,25.10
2023-05-16T22:45:24.001Z,24.00
2023-05-16T22:49:14.533Z,26.10
2023-05-16T22:53:04.366Z,27.70
2023-05-16T22:56:53.687Z,25.80
2023-05-16T23:01:02.400Z,24.50
2023-05-16T23:04:54.397Z,28.20
2023-05-16T23:08:44.681Z,26.30
2023-05-16T23:12:34.538Z,24.20
2023-05-16T23:16:43.942Z,27.60
2023-05-16T23:20:52.495Z,29.60
2023-05-16T23:24:44.375Z,23.80
2023-05-16T23:28:32.889Z,23.00
2023-05-16T23:32:22.358Z,25.90
2023-05-16T23:36:11.092Z,25.00
2023-05-16T23:39:59.483Z,20.70
2023-05-16T23:43:50.142Z,20.80
2023-05-16T23:47:39.581Z,20.70
2023-05-16T23:51:45.307Z,19.30
2023-05-16T23:55:42.790Z,21.40
2023-05-16T23:59:32.272Z,22.30
